Time;durP1;ratioP1;P1;durP2;ratioP2;P2;SDS_P1;SDS_P2;PMS_P1;PMS_P2;Temp;Humidity;BMP_temperature;BMP_pressure;BME280_temperature;BME280_humidity;BME280_pressure;Samples;Min_cycle;Max_cycle;Signal;HPM_P1;HPM_P2
2021/12/08 00:00:18;;;;;;;11.48;4.93;;;1.40;91.30;;;;;;5043161;28;20059;-79
2021/12/08 00:02:44;;;;;;;12.30;4.50;;;1.30;91.30;;;;;;5012133;28;20034;-78
2021/12/08 00:05:11;;;;;;;11.20;4.72;;;1.30;91.30;;;;;;5005341;28;20039;-79
2021/12/08 00:07:36;;;;;;;6.72;3.45;;;1.30;91.30;;;;;;5028243;28;20025;-80
2021/12/08 00:13:04;;;;;;;7.75;3.50;;;1.30;91.30;;;;;;5027559;28;20500;-79
2021/12/08 00:15:33;;;;;;;4.90;3.00;;;1.30;91.30;;;;;;5026079;28;20043;-80
2021/12/08 00:17:59;;;;;;;5.60;2.85;;;1.30;91.30;;;;;;5025268;28;20562;-80
2021/12/08 00:20:27;;;;;;;6.07;2.90;;;1.30;91.30;;;;;;5003228;28;20155;-79
2021/12/08 00:22:52;;;;;;;6.38;2.90;;;1.30;91.40;;;;;;5038317;28;20025;-79
2021/12/08 00:25:18;;;;;;;5.85;3.08;;;1.30;91.40;;;;;;5026673;28;20041;-79
2021/12/08 00:27:43;;;;;;;6.65;2.65;;;1.30;91.40;;;;;;5015460;28;20099;-80
2021/12/08 00:30:09;;;;;;;8.88;3.65;;;1.30;91.40;;;;;;5020901;28;20048;-79
2021/12/08 00:32:36;;;;;;;9.63;4.97;;;1.30;91.40;;;;;;5020871;28;20094;-79
2021/12/08 00:35:03;;;;;;;6.40;2.85;;;1.30;91.40;;;;;;5029971;28;20724;-79
2021/12/08 00:37:29;;;;;;;6.38;3.17;;;1.30;91.40;;;;;;4990518;28;20799;-79
2021/12/08 00:39:54;;;;;;;4.25;3.30;;;1.30;91.40;;;;;;5009575;28;20037;-78
2021/12/08 00:42:20;;;;;;;6.00;3.17;;;1.40;91.40;;;;;;5001340;28;20029;-78
2021/12/08 00:44:46;;;;;;;4.20;2.67;;;1.30;91.40;;;;;;5019831;28;20095;-79
2021/12/08 00:47:12;;;;;;;5.03;2.50;;;1.30;91.40;;;;;;5007676;28;20032;-79
2021/12/08 00:49:39;;;;;;;3.22;2.40;;;1.40;91.40;;;;;;5024924;28;20040;-80
2021/12/08 00:52:05;;;;;;;4.72;2.72;;;1.40;91.40;;;;;;5032327;28;20033;-78
2021/12/08 00:54:30;;;;;;;5.18;2.75;;;1.40;91.40;;;;;;5022799;28;20048;-78
2021/12/08 00:56:57;;;;;;;3.58;2.45;;;1.40;91.40;;;;;;5020835;28;20029;-78
2021/12/08 00:59:23;;;;;;;3.90;2.30;;;1.50;91.40;;;;;;5005675;28;20037;-78
2021/12/08 01:01:48;;;;;;;5.40;2.42;;;1.50;91.40;;;;;;5030091;28;20029;-79
2021/12/08 01:04:15;;;;;;;4.47;2.00;;;1.50;91.40;;;;;;5010839;28;20732;-79
2021/12/08 01:06:41;;;;;;;5.93;2.17;;;1.60;91.40;;;;;;5028718;28;20091;-80
2021/12/08 01:09:07;;;;;;;4.03;2.40;;;1.60;91.40;;;;;;5026196;28;20037;-78
2021/12/08 01:11:32;;;;;;;4.20;2.30;;;1.60;91.40;;;;;;5013716;28;20033;-79
2021/12/08 01:13:58;;;;;;;3.10;1.90;;;1.60;91.40;;;;;;5003218;28;20164;-78
2021/12/08 01:16:24;;;;;;;4.10;2.40;;;1.60;91.40;;;;;;5018454;28;20044;-78
2021/12/08 01:18:49;;;;;;;4.82;2.67;;;1.70;91.40;;;;;;5019793;28;20049;-78
2021/12/08 01:21:17;;;;;;;3.83;2.30;;;1.70;91.40;;;;;;5012991;28;20059;-78
2021/12/08 01:23:43;;;;;;;4.00;2.15;;;1.70;91.40;;;;;;5014131;28;20038;-79
2021/12/08 01:26:09;;;;;;;3.90;2.53;;;1.70;91.40;;;;;;5041345;28;20045;-78
2021/12/08 01:28:34;;;;;;;4.68;2.38;;;1.70;91.80;;;;;;4989275;28;20051;-77
2021/12/08 01:31:01;;;;;;;4.38;2.28;;;1.70;91.40;;;;;;5037714;28;20033;-79
2021/12/08 01:33:29;;;;;;;3.17;2.30;;;1.70;91.40;;;;;;5008297;28;20087;-78
2021/12/08 01:35:55;;;;;;;4.15;1.92;;;1.80;91.40;;;;;;5027753;28;20028;-77
2021/12/08 01:38:21;;;;;;;2.25;1.73;;;1.80;91.40;;;;;;5027578;28;20036;-77
2021/12/08 01:40:46;;;;;;;4.45;2.22;;;1.80;91.30;;;;;;5019575;28;20097;-78
2021/12/08 01:43:25;;;;;;;3.28;2.10;;;1.80;91.30;;;;;;5016036;28;20025;-79
2021/12/08 01:45:59;;;;;;;4.88;1.92;;;1.90;91.30;;;;;;5015147;28;20678;-77
2021/12/08 01:48:25;;;;;;;6.68;2.20;;;1.90;91.30;;;;;;5010365;28;20515;-78
2021/12/08 01:50:53;;;;;;;5.28;2.30;;;1.90;91.30;;;;;;5015090;28;20037;-77
2021/12/08 01:53:19;;;;;;;4.78;1.88;;;1.90;91.20;;;;;;4989750;28;20092;-78
2021/12/08 01:55:44;;;;;;;4.55;2.17;;;1.90;91.20;;;;;;5014987;28;20048;-78
2021/12/08 01:58:10;;;;;;;6.00;1.92;;;2.00;91.20;;;;;;5014665;28;20037;-79
2021/12/08 02:00:45;;;;;;;5.28;2.47;;;2.00;91.20;;;;;;5026264;28;20100;-78
2021/12/08 02:03:11;;;;;;;5.03;2.28;;;2.00;91.20;;;;;;5001133;28;20075;-78
2021/12/08 02:05:36;;;;;;;2.83;1.95;;;2.00;91.20;;;;;;5017909;28;20476;-78
2021/12/08 02:08:02;;;;;;;2.60;1.92;;;2.00;91.20;;;;;;5027404;28;20038;-78
2021/12/08 02:10:28;;;;;;;4.40;2.00;;;2.10;91.20;;;;;;5001940;28;20354;-78
2021/12/08 02:12:54;;;;;;;3.50;2.08;;;2.00;91.10;;;;;;4983203;28;20041;-78
2021/12/08 02:15:20;;;;;;;3.50;2.20;;;2.10;91.10;;;;;;4993065;28;20044;-78
2021/12/08 02:17:48;;;;;;;4.07;2.10;;;2.10;91.10;;;;;;5040297;28;20384;-78
2021/12/08 02:20:13;;;;;;;5.43;2.13;;;2.10;91.10;;;;;;5006872;28;20037;-78
2021/12/08 02:22:39;;;;;;;7.47;2.63;;;2.10;91.10;;;;;;5036055;28;20788;-78
2021/12/08 02:25:06;;;;;;;4.95;2.58;;;2.10;91.10;;;;;;5008582;28;20407;-78
2021/12/08 02:27:33;;;;;;;4.25;2.30;;;2.10;91.10;;;;;;5037609;28;20111;-79
2021/12/08 02:30:07;;;;;;;5.28;1.98;;;2.10;91.10;;;;;;5025552;28;20044;-78
2021/12/08 02:48:48;;;;;;;3.88;2.15;;;2.10;90.90;;;;;;5024206;28;20556;-77
2021/12/08 02:51:14;;;;;;;4.28;1.98;;;2.20;91.00;;;;;;5024134;28;20051;-79
2021/12/08 02:53:39;;;;;;;5.32;2.13;;;2.10;91.00;;;;;;5022010;28;20060;-79
2021/12/08 02:56:05;;;;;;;3.45;1.83;;;2.10;91.00;;;;;;5024925;28;20415;-78
2021/12/08 02:58:31;;;;;;;2.67;1.60;;;2.10;91.00;;;;;;5030740;28;20029;-78
2021/12/08 03:00:59;;;;;;;4.55;1.55;;;2.10;91.00;;;;;;5026457;28;20041;-79
2021/12/08 03:03:24;;;;;;;6.45;2.10;;;2.10;91.00;;;;;;5010585;28;20106;-80
2021/12/08 03:05:50;;;;;;;3.47;1.70;;;2.10;91.10;;;;;;5045599;28;20063;-79
2021/12/08 03:08:16;;;;;;;3.60;1.90;;;2.10;91.10;;;;;;5011867;28;20025;-80
2021/12/08 03:10:43;;;;;;;2.83;1.50;;;2.10;91.10;;;;;;5004629;28;20033;-80
2021/12/08 03:13:09;;;;;;;4.07;2.10;;;2.10;91.10;;;;;;5010362;28;20165;-80
2021/12/08 03:15:35;;;;;;;3.13;1.77;;;2.10;91.20;;;;;;5007386;28;20139;-79
2021/12/08 03:18:00;;;;;;;2.85;1.77;;;2.10;91.20;;;;;;5006102;28;20033;-80
2021/12/08 03:20:43;;;;;;;1.80;1.58;;;2.10;91.20;;;;;;5026451;28;20040;-80
2021/12/08 03:23:15;;;;;;;3.88;2.17;;;2.10;91.20;;;;;;5024559;28;20043;-80
2021/12/08 03:25:43;;;;;;;2.72;2.00;;;2.10;91.30;;;;;;5025660;28;20039;-80
2021/12/08 03:28:20;;;;;;;2.90;1.95;;;2.10;91.20;;;;;;5016988;28;20036;-80
2021/12/08 03:31:05;;;;;;;3.28;2.50;;;2.00;91.20;;;;;;5016017;28;20044;-80
2021/12/08 03:33:31;;;;;;;3.42;1.75;;;2.10;91.30;;;;;;5002533;28;20112;-80
2021/12/08 03:35:57;;;;;;;4.65;2.58;;;2.00;91.30;;;;;;5011978;28;20065;-80
2021/12/08 03:38:22;;;;;;;4.95;2.50;;;2.10;91.30;;;;;;5044045;28;20610;-80
2021/12/08 03:40:50;;;;;;;2.80;2.03;;;2.00;91.30;;;;;;5025601;28;20036;-81
2021/12/08 03:43:16;;;;;;;7.43;2.50;;;2.10;91.30;;;;;;5020262;28;20078;-80
2021/12/08 03:45:45;;;;;;;5.72;2.10;;;2.00;91.30;;;;;;5042589;28;20091;-80
2021/12/08 03:48:13;;;;;;;2.92;1.98;;;2.00;91.30;;;;;;5027132;28;21243;-80
2021/12/08 03:50:40;;;;;;;3.60;2.05;;;2.00;91.40;;;;;;5036402;28;20087;-79
2021/12/08 03:53:06;;;;;;;2.75;2.15;;;2.00;91.40;;;;;;5017453;28;20041;-80
2021/12/08 03:55:32;;;;;;;4.65;2.10;;;2.00;91.40;;;;;;5034344;28;20037;-79
2021/12/08 03:57:58;;;;;;;2.70;1.83;;;2.00;91.40;;;;;;5021490;28;20064;-80
2021/12/08 04:00:24;;;;;;;3.10;1.95;;;2.00;91.40;;;;;;5030769;28;20564;-79
2021/12/08 04:02:50;;;;;;;4.10;1.90;;;2.00;91.50;;;;;;5033647;28;20489;-79
2021/12/08 04:05:19;;;;;;;5.18;2.00;;;2.00;91.50;;;;;;5032134;28;20681;-80
2021/12/08 04:07:46;;;;;;;2.58;1.80;;;2.00;91.50;;;;;;5029080;28;20029;-79
2021/12/08 04:10:18;;;;;;;2.13;1.88;;;2.00;91.50;;;;;;5055623;28;20033;-79
2021/12/08 04:12:50;;;;;;;2.03;1.55;;;2.00;91.50;;;;;;5026550;28;20040;-80
2021/12/08 04:15:16;;;;;;;2.90;1.60;;;2.00;91.60;;;;;;5006762;28;20497;-81
2021/12/08 04:17:44;;;;;;;2.25;1.73;;;2.00;91.60;;;;;;5020106;28;20048;-81
2021/12/08 04:20:17;;;;;;;2.58;1.92;;;2.00;91.60;;;;;;5038333;28;20040;-82
2021/12/08 04:22:44;;;;;;;13.73;5.05;;;2.00;91.60;;;;;;4989234;28;20499;-80
2021/12/08 04:25:12;;;;;;;7.15;3.25;;;2.00;91.60;;;;;;5031169;28;20055;-81
2021/12/08 04:27:38;;;;;;;5.55;3.25;;;2.00;91.60;;;;;;5032646;28;20033;-82
2021/12/08 04:30:06;;;;;;;4.75;2.28;;;1.90;91.60;;;;;;5018947;28;20040;-80
2021/12/08 04:32:33;;;;;;;7.00;3.72;;;2.00;91.60;;;;;;5018151;28;20063;-81
2021/12/08 04:34:59;;;;;;;7.05;3.33;;;1.90;91.60;;;;;;4995422;28;20034;-80
2021/12/08 04:37:30;;;;;;;4.63;2.55;;;2.00;91.70;;;;;;4995658;28;20074;-80
2021/12/08 04:40:18;;;;;;;6.10;2.47;;;2.00;91.70;;;;;;5026097;28;20083;-80
2021/12/08 04:45:27;;;;;;;7.10;2.42;;;2.00;91.70;;;;;;5039943;28;20093;-81
2021/12/08 04:51:16;;;;;;;3.47;1.90;;;2.00;91.70;;;;;;5039885;28;20706;-79
2021/12/08 04:53:46;;;;;;;3.03;2.00;;;2.00;91.70;;;;;;5029482;28;20036;-80
2021/12/08 05:04:26;;;;;;;2.40;1.80;;;2.00;91.70;;;;;;5015559;28;20033;-79
2021/12/08 05:09:33;;;;;;;4.95;2.10;;;2.00;91.70;;;;;;5008653;28;20056;-80
2021/12/08 05:12:02;;;;;;;2.00;1.70;;;2.10;91.80;;;;;;5040875;28;20053;-80
2021/12/08 05:14:34;;;;;;;2.35;1.77;;;2.10;91.80;;;;;;5008239;28;20422;-79
2021/12/08 05:17:03;;;;;;;2.35;1.90;;;2.10;91.80;;;;;;5022829;28;20048;-79
2021/12/08 05:19:30;;;;;;;2.55;1.88;;;2.10;91.80;;;;;;5001778;28;20033;-80
2021/12/08 05:22:11;;;;;;;2.30;2.10;;;2.10;91.80;;;;;;4999937;28;20063;-80
2021/12/08 05:24:40;;;;;;;2.47;2.10;;;2.10;91.80;;;;;;5013646;28;20072;-81
2021/12/08 05:27:17;;;;;;;4.35;2.00;;;2.10;91.80;;;;;;5040009;28;20056;-79
2021/12/08 05:29:48;;;;;;;2.85;1.90;;;2.10;91.80;;;;;;5022584;28;20051;-78
2021/12/08 05:32:14;;;;;;;5.13;2.42;;;2.10;91.80;;;;;;4999504;28;20062;-81
2021/12/08 05:34:40;;;;;;;2.42;2.00;;;2.10;91.80;;;;;;5019347;28;20535;-82
2021/12/08 05:37:07;;;;;;;3.20;2.08;;;2.10;91.80;;;;;;5001826;28;20036;-79
2021/12/08 05:39:32;;;;;;;3.30;2.25;;;2.10;91.80;;;;;;4997609;28;20036;-80
2021/12/08 05:42:02;;;;;;;3.00;1.90;;;2.10;91.80;;;;;;5002776;28;20048;-79
2021/12/08 05:44:28;;;;;;;4.18;2.25;;;2.10;91.90;;;;;;4996655;28;20511;-79
2021/12/08 05:46:55;;;;;;;7.25;4.00;;;2.10;91.90;;;;;;5041839;28;20045;-78
2021/12/08 05:49:20;;;;;;;6.30;4.05;;;2.10;91.90;;;;;;5043230;28;20029;-78
2021/12/08 05:51:47;;;;;;;4.20;2.92;;;2.10;91.90;;;;;;5032005;28;20041;-80
2021/12/08 05:54:19;;;;;;;5.85;3.03;;;2.10;91.90;;;;;;5009366;28;20041;-79
2021/12/08 05:56:45;;;;;;;3.67;2.95;;;2.10;91.90;;;;;;5038694;28;20037;-80
2021/12/08 05:59:11;;;;;;;6.55;3.28;;;2.10;91.90;;;;;;5034000;28;20060;-80
2021/12/08 06:02:14;;;;;;;3.63;3.05;;;2.10;91.90;;;;;;5001417;28;20039;-78
2021/12/08 06:04:40;;;;;;;3.63;3.20;;;2.10;91.90;;;;;;5016368;28;20040;-77
2021/12/08 06:07:05;;;;;;;10.63;5.30;;;2.10;91.90;;;;;;5021127;28;20413;-78
2021/12/08 06:09:31;;;;;;;7.93;4.68;;;2.10;91.90;;;;;;5014580;28;20033;-78
2021/12/08 06:11:57;;;;;;;7.47;4.53;;;2.10;91.90;;;;;;5009652;28;20110;-78
2021/12/08 06:14:25;;;;;;;7.03;4.10;;;2.10;91.90;;;;;;5015253;28;20073;-78
2021/12/08 06:16:51;;;;;;;5.18;3.35;;;2.10;91.90;;;;;;5033497;28;20029;-78
2021/12/08 06:19:19;;;;;;;4.88;3.47;;;2.10;91.90;;;;;;4989308;28;20025;-78
2021/12/08 06:21:45;;;;;;;5.80;3.40;;;2.10;92.00;;;;;;5004426;28;20048;-78
2021/12/08 06:24:12;;;;;;;3.65;2.70;;;2.10;92.00;;;;;;4986035;28;20088;-78
2021/12/08 06:26:38;;;;;;;3.80;2.72;;;2.10;92.00;;;;;;4993982;28;20034;-80
2021/12/08 06:29:04;;;;;;;3.42;2.75;;;2.10;92.00;;;;;;5029722;28;20041;-80
2021/12/08 06:31:30;;;;;;;5.75;2.83;;;2.10;92.00;;;;;;5010270;28;20102;-80
2021/12/08 06:33:56;;;;;;;5.68;3.28;;;2.10;92.00;;;;;;5030479;28;20036;-80
2021/12/08 06:36:26;;;;;;;5.82;3.58;;;2.10;92.00;;;;;;5023007;28;20029;-79
2021/12/08 06:38:52;;;;;;;4.03;3.47;;;2.10;92.00;;;;;;5011679;28;20436;-81
2021/12/08 06:41:30;;;;;;;6.35;4.20;;;2.10;92.00;;;;;;5035928;28;20117;-79
2021/12/08 06:44:04;;;;;;;4.93;3.47;;;2.10;92.00;;;;;;5009118;28;20034;-78
2021/12/08 06:46:30;;;;;;;3.10;2.80;;;2.10;92.00;;;;;;5040249;28;20029;-80
2021/12/08 06:48:57;;;;;;;7.10;3.33;;;2.10;92.00;;;;;;5015726;28;20064;-79
2021/12/08 06:51:26;;;;;;;4.68;3.45;;;2.10;92.00;;;;;;5037501;28;20045;-80
2021/12/08 06:53:54;;;;;;;3.00;2.70;;;2.10;92.10;;;;;;5040461;28;20059;-81
2021/12/08 06:56:34;;;;;;;3.40;2.75;;;2.10;92.10;;;;;;5021977;28;20051;-81
2021/12/08 06:59:02;;;;;;;3.80;2.55;;;2.10;92.10;;;;;;5024333;28;20093;-79
2021/12/08 07:02:09;;;;;;;3.03;2.60;;;2.10;92.00;;;;;;5011672;28;20660;-79
2021/12/08 07:05:09;;;;;;;3.20;2.80;;;2.10;92.10;;;;;;5007901;28;20522;-81
2021/12/08 07:07:35;;;;;;;4.43;3.40;;;2.10;92.10;;;;;;4991785;28;20082;-81
2021/12/08 07:10:08;;;;;;;6.07;3.83;;;2.10;92.40;;;;;;5019515;28;20032;-81
2021/12/08 07:12:44;;;;;;;4.70;3.50;;;2.10;92.10;;;;;;5009204;28;20038;-80
2021/12/08 07:15:22;;;;;;;6.40;3.25;;;2.10;92.10;;;;;;5016491;28;20032;-80
2021/12/08 07:17:50;;;;;;;5.07;3.10;;;2.10;92.10;;;;;;5022405;28;20029;-80
2021/12/08 07:20:43;;;;;;;5.28;3.00;;;2.10;92.10;;;;;;5001614;28;20494;-80
2021/12/08 07:23:05;;;;;;;5.70;3.33;;;2.10;92.10;;;;;;4976824;28;20033;-79
2021/12/08 07:25:30;;;;;;;8.57;3.60;;;2.10;92.10;;;;;;5001538;28;20052;-80
2021/12/08 07:27:56;;;;;;;5.03;3.42;;;2.10;92.10;;;;;;5004560;28;20053;-79
2021/12/08 07:30:37;;;;;;;4.72;3.60;;;2.20;92.10;;;;;;5021807;28;20048;-80
2021/12/08 07:33:02;;;;;;;5.65;3.20;;;2.20;92.20;;;;;;5015166;28;20121;-80
2021/12/08 07:35:37;;;;;;;5.13;3.58;;;2.20;92.20;;;;;;5009264;28;20146;-80
2021/12/08 07:38:07;;;;;;;13.13;6.57;;;2.20;92.20;;;;;;5017953;28;20045;-79
2021/12/08 07:40:40;;;;;;;24.90;10.50;;;2.20;92.10;;;;;;5021141;28;20029;-80
2021/12/08 07:43:09;;;;;;;20.02;10.10;;;2.20;92.20;;;;;;5016673;28;20056;-78
2021/12/08 07:45:38;;;;;;;16.80;8.80;;;2.20;92.10;;;;;;4994044;28;20039;-77
2021/12/08 07:48:08;;;;;;;13.38;8.35;;;2.20;92.20;;;;;;5039102;28;20599;-78
2021/12/08 07:50:41;;;;;;;11.82;6.55;;;2.20;92.20;;;;;;5002986;28;20095;-78
2021/12/08 07:53:08;;;;;;;7.30;5.10;;;2.20;92.20;;;;;;5005954;28;20115;-78
2021/12/08 07:55:38;;;;;;;6.28;4.30;;;2.20;92.20;;;;;;5016571;28;20139;-78
2021/12/08 07:58:05;;;;;;;7.03;3.80;;;2.20;92.20;;;;;;4996334;28;20043;-78
2021/12/08 08:00:56;;;;;;;4.70;3.40;;;2.20;92.20;;;;;;5022617;28;20053;-78
2021/12/08 08:03:25;;;;;;;11.25;5.60;;;2.20;92.20;;;;;;5001609;28;20039;-78
2021/12/08 08:05:51;;;;;;;8.07;5.35;;;2.20;92.20;;;;;;5015987;28;20045;-78
2021/12/08 08:08:18;;;;;;;8.75;5.97;;;2.20;92.20;;;;;;5029661;28;20041;-78
2021/12/08 08:10:47;;;;;;;8.18;5.95;;;2.20;92.20;;;;;;4984294;28;20033;-78
2021/12/08 08:13:14;;;;;;;8.45;5.15;;;2.20;92.20;;;;;;5025131;28;20039;-78
2021/12/08 08:15:44;;;;;;;11.32;7.13;;;2.20;92.20;;;;;;5014766;28;20047;-78
2021/12/08 08:18:11;;;;;;;9.68;5.35;;;2.20;92.20;;;;;;5045282;28;20044;-78
2021/12/08 08:20:40;;;;;;;7.75;4.70;;;2.20;92.20;;;;;;5008108;28;20120;-78
2021/12/08 08:23:06;;;;;;;7.07;4.63;;;2.20;92.20;;;;;;5015941;28;20039;-77
2021/12/08 08:25:35;;;;;;;6.68;4.18;;;2.20;92.30;;;;;;5005608;28;20343;-78
2021/12/08 08:28:01;;;;;;;8.02;4.20;;;2.20;92.30;;;;;;5023183;28;20029;-78
2021/12/08 08:30:32;;;;;;;7.00;4.28;;;2.20;92.30;;;;;;4992224;28;20033;-78
2021/12/08 08:32:58;;;;;;;6.67;4.87;;;2.20;92.30;;;;;;5021723;28;20051;-78
2021/12/08 08:35:54;;;;;;;9.27;5.88;;;2.20;92.30;;;;;;5014915;28;20302;-78
2021/12/08 08:38:23;;;;;;;7.53;5.38;;;2.20;92.30;;;;;;5005047;28;20126;-78
2021/12/08 08:40:53;;;;;;;10.77;5.53;;;2.20;92.30;;;;;;5020934;28;20390;-78
2021/12/08 08:43:18;;;;;;;11.80;7.43;;;2.30;92.30;;;;;;5010507;28;20061;-79
2021/12/08 08:45:47;;;;;;;6.97;5.07;;;2.30;92.30;;;;;;4999972;28;20061;-79
2021/12/08 08:48:15;;;;;;;8.95;4.82;;;2.30;92.30;;;;;;5015827;28;20568;-79
2021/12/08 08:50:53;;;;;;;7.00;4.68;;;2.30;92.30;;;;;;5004750;28;20038;-78
2021/12/08 08:53:19;;;;;;;9.30;5.80;;;2.30;92.30;;;;;;5011767;28;20045;-79
2021/12/08 08:55:53;;;;;;;13.23;8.07;;;2.30;92.30;;;;;;5015235;28;20037;-79
2021/12/08 08:58:21;;;;;;;10.18;6.88;;;2.30;92.70;;;;;;5020807;28;20043;-79
2021/12/08 09:00:57;;;;;;;12.35;7.68;;;2.30;92.30;;;;;;5000352;28;20125;-78
2021/12/08 09:03:25;;;;;;;13.82;8.35;;;2.30;92.40;;;;;;5034153;28;20121;-78
2021/12/08 09:06:00;;;;;;;17.48;10.98;;;2.30;92.40;;;;;;5025933;28;20103;-79
2021/12/08 09:08:27;;;;;;;16.52;10.00;;;2.40;92.40;;;;;;5035077;28;20029;-79
2021/12/08 09:10:54;;;;;;;17.05;11.07;;;2.40;92.40;;;;;;5002774;28;20514;-79
2021/12/08 09:13:38;;;;;;;18.38;10.57;;;2.40;92.40;;;;;;5043019;28;20036;-78
2021/12/08 09:16:06;;;;;;;12.15;8.20;;;2.40;92.40;;;;;;4982552;28;20033;-79
2021/12/08 09:18:50;;;;;;;10.82;7.90;;;2.40;92.40;;;;;;5023602;28;20615;-79
2021/12/08 09:21:39;;;;;;;8.85;6.70;;;2.40;92.40;;;;;;5007940;28;20045;-79
2021/12/08 09:24:08;;;;;;;9.52;6.25;;;2.40;92.50;;;;;;5022514;28;20055;-79
2021/12/08 09:26:38;;;;;;;8.02;5.50;;;2.50;92.40;;;;;;5030596;28;20037;-79
2021/12/08 09:29:18;;;;;;;8.05;5.50;;;2.50;92.40;;;;;;5004420;28;20113;-79
2021/12/08 09:31:56;;;;;;;9.25;4.85;;;2.50;92.40;;;;;;5017879;28;20112;-79
2021/12/08 09:34:27;;;;;;;12.55;7.97;;;2.50;92.40;;;;;;5024760;28;20170;-79
2021/12/08 09:36:59;;;;;;;9.02;6.25;;;2.50;92.40;;;;;;5018148;28;20392;-79
2021/12/08 09:39:28;;;;;;;9.52;5.80;;;2.50;92.40;;;;;;5020012;28;20100;-79
2021/12/08 09:42:03;;;;;;;8.55;5.65;;;2.50;92.40;;;;;;5015518;28;20033;-79
2021/12/08 09:44:33;;;;;;;9.07;5.38;;;2.50;92.40;;;;;;5014630;28;20712;-79
2021/12/08 09:46:59;;;;;;;7.53;5.20;;;2.50;92.40;;;;;;5034895;28;20187;-79
2021/12/08 09:49:25;;;;;;;8.32;5.28;;;2.50;92.40;;;;;;5010562;28;20683;-79
2021/12/08 09:51:52;;;;;;;7.53;4.95;;;2.60;92.40;;;;;;5027605;28;20064;-79
2021/12/08 09:54:18;;;;;;;6.13;4.68;;;2.60;92.40;;;;;;4965559;28;20575;-79
2021/12/08 09:56:44;;;;;;;11.40;6.80;;;2.60;92.40;;;;;;5006445;28;20525;-80
2021/12/08 09:59:10;;;;;;;11.40;5.13;;;2.60;92.50;;;;;;4990191;28;20030;-79
2021/12/08 10:01:39;;;;;;;8.40;5.05;;;2.60;92.50;;;;;;5023909;28;20033;-79
2021/12/08 10:04:04;;;;;;;6.38;4.75;;;2.60;92.50;;;;;;5027876;28;20044;-79
2021/12/08 10:06:30;;;;;;;11.45;6.43;;;2.60;92.50;;;;;;5040531;28;20029;-80
2021/12/08 10:08:57;;;;;;;8.90;5.90;;;2.60;92.50;;;;;;4982848;28;20057;-80
2021/12/08 10:11:23;;;;;;;10.73;6.20;;;2.70;92.50;;;;;;5005859;28;20034;-79
2021/12/08 10:13:49;;;;;;;8.98;5.60;;;2.60;92.50;;;;;;5010016;28;20041;-79
2021/12/08 10:16:14;;;;;;;6.15;4.60;;;2.70;92.50;;;;;;5022038;28;20056;-80
2021/12/08 10:18:40;;;;;;;6.25;4.63;;;2.70;92.50;;;;;;4996652;28;20481;-80
2021/12/08 10:21:06;;;;;;;6.15;4.50;;;2.70;92.50;;;;;;4993877;28;20030;-79
2021/12/08 10:23:42;;;;;;;6.05;4.30;;;2.70;92.50;;;;;;4993617;28;20021;-80
2021/12/08 10:26:10;;;;;;;6.18;4.40;;;2.70;92.50;;;;;;4976611;28;20037;-80
2021/12/08 10:28:40;;;;;;;6.80;4.13;;;2.70;92.40;;;;;;4998597;28;20030;-80
2021/12/08 10:31:17;;;;;;;8.48;6.15;;;2.70;92.40;;;;;;5002265;28;20049;-80
2021/12/08 10:33:59;;;;;;;6.32;4.43;;;2.70;92.40;;;;;;5029647;28;20042;-79
2021/12/08 10:36:46;;;;;;;10.70;5.47;;;2.70;92.40;;;;;;5020418;28;20156;-80
2021/12/08 10:39:12;;;;;;;7.93;4.25;;;2.70;92.40;;;;;;5016361;28;20029;-80
2021/12/08 10:41:52;;;;;;;9.40;4.90;;;2.70;92.40;;;;;;5002639;28;20084;-79
2021/12/08 10:44:25;;;;;;;5.93;4.22;;;2.80;92.50;;;;;;5016985;28;20046;-80
2021/12/08 10:46:55;;;;;;;7.45;5.63;;;2.80;92.50;;;;;;5014574;28;20060;-79
2021/12/08 10:54:32;;;;;;;11.55;7.63;;;2.80;92.50;;;;;;5038453;28;20084;-79
2021/12/08 10:56:59;;;;;;;11.75;6.88;;;2.80;92.50;;;;;;5044522;28;20044;-79
2021/12/08 10:59:26;;;;;;;13.73;8.57;;;2.80;92.50;;;;;;5002820;28;20045;-79
2021/12/08 11:01:53;;;;;;;10.98;7.63;;;2.80;92.50;;;;;;4986303;28;20030;-79
2021/12/08 11:04:20;;;;;;;11.75;6.78;;;2.80;92.50;;;;;;4991231;28;20044;-79
2021/12/08 11:06:47;;;;;;;10.43;6.97;;;2.80;92.50;;;;;;5004129;28;20048;-79
2021/12/08 11:09:19;;;;;;;9.57;5.88;;;2.80;92.50;;;;;;4980973;28;20036;-80
2021/12/08 11:11:44;;;;;;;7.68;5.43;;;2.80;92.50;;;;;;4984243;28;20033;-79
2021/12/08 11:14:11;;;;;;;9.38;7.13;;;2.80;92.50;;;;;;4986945;28;20036;-79
2021/12/08 11:16:41;;;;;;;8.52;5.55;;;2.80;92.50;;;;;;4991025;28;20040;-80
2021/12/08 11:19:12;;;;;;;9.77;5.32;;;2.80;92.50;;;;;;5003580;28;20045;-80
2021/12/08 11:21:53;;;;;;;9.30;5.95;;;2.80;92.50;;;;;;5001802;28;20088;-80
2021/12/08 11:24:33;;;;;;;11.77;7.90;;;2.80;92.50;;;;;;5016819;28;20208;-80
2021/12/08 11:27:00;;;;;;;7.72;5.38;;;2.80;92.40;;;;;;4975901;28;20140;-80
2021/12/08 11:29:27;;;;;;;7.30;5.05;;;2.80;92.50;;;;;;4987662;28;20184;-80
2021/12/08 11:32:03;;;;;;;9.65;4.93;;;2.90;92.50;;;;;;5000988;28;20058;-81
2021/12/08 11:34:39;;;;;;;10.32;5.25;;;2.90;92.50;;;;;;4987130;28;20120;-80
2021/12/08 11:37:12;;;;;;;9.20;5.45;;;2.90;92.40;;;;;;5011001;28;20105;-81
2021/12/08 11:39:39;;;;;;;6.55;4.88;;;2.90;92.50;;;;;;4987244;28;20497;-79
2021/12/08 11:42:10;;;;;;;6.93;4.80;;;2.90;92.50;;;;;;4990418;28;20125;-80
2021/12/08 11:44:38;;;;;;;9.20;5.65;;;2.90;92.50;;;;;;4994300;28;20120;-79
2021/12/08 11:47:15;;;;;;;5.90;4.95;;;2.90;92.50;;;;;;4996461;28;20048;-79
2021/12/08 11:49:48;;;;;;;11.02;6.20;;;2.90;92.50;;;;;;5024021;28;20049;-79
2021/12/08 11:52:19;;;;;;;9.60;5.30;;;2.90;92.50;;;;;;4983032;28;20119;-79
2021/12/08 11:54:47;;;;;;;6.70;5.30;;;2.90;92.50;;;;;;4993404;28;20545;-79
2021/12/08 11:57:21;;;;;;;8.48;5.10;;;2.90;92.60;;;;;;5033691;28;20030;-79
2021/12/08 11:59:54;;;;;;;8.25;4.78;;;2.90;92.50;;;;;;5017846;28;20124;-79
2021/12/08 12:02:21;;;;;;;5.88;4.57;;;2.90;92.40;;;;;;4974040;28;20041;-79
2021/12/08 12:04:47;;;;;;;7.38;5.40;;;3.00;92.50;;;;;;5002267;28;20038;-79
2021/12/08 12:07:13;;;;;;;6.70;5.20;;;3.00;92.50;;;;;;5018768;28;20041;-79
2021/12/08 12:09:38;;;;;;;8.98;5.63;;;3.00;92.50;;;;;;4969492;28;21040;-79
2021/12/08 12:12:04;;;;;;;5.97;4.75;;;3.00;92.50;;;;;;4975100;28;20042;-79
2021/12/08 12:14:30;;;;;;;9.63;4.57;;;2.90;92.40;;;;;;4980456;28;20064;-79
2021/12/08 12:16:55;;;;;;;46.08;35.88;;;3.00;92.50;;;;;;4994636;28;20041;-79
2021/12/08 12:19:22;;;;;;;13.48;8.73;;;3.00;92.40;;;;;;4996550;28;20054;-79
2021/12/08 12:22:08;;;;;;;17.73;13.38;;;3.00;92.50;;;;;;4962623;28;20045;-79
2021/12/08 12:24:59;;;;;;;13.13;7.60;;;3.00;92.50;;;;;;4980977;28;20172;-79
2021/12/08 12:28:01;;;;;;;10.80;5.85;;;3.00;92.40;;;;;;4997623;28;20055;-79
2021/12/08 12:30:32;;;;;;;9.02;6.63;;;3.00;92.40;;;;;;5011418;28;20065;-79
2021/12/08 12:32:58;;;;;;;10.60;6.28;;;3.00;92.40;;;;;;4993070;28;20492;-79
2021/12/08 12:35:29;;;;;;;10.73;6.60;;;3.00;92.40;;;;;;4986066;28;20036;-79
2021/12/08 12:38:07;;;;;;;8.85;5.82;;;3.00;92.40;;;;;;4980761;28;20188;-79
2021/12/08 12:40:38;;;;;;;7.35;5.97;;;3.00;92.40;;;;;;5021021;28;20040;-79
2021/12/08 12:43:04;;;;;;;7.15;5.28;;;3.00;92.40;;;;;;4979505;28;20702;-80
2021/12/08 12:46:06;;;;;;;9.50;5.32;;;3.00;92.40;;;;;;4985075;28;20045;-79
2021/12/08 12:48:32;;;;;;;9.10;5.97;;;3.00;92.60;;;;;;5006453;28;20034;-79
2021/12/08 12:51:01;;;;;;;7.22;5.18;;;3.00;92.40;;;;;;4992139;28;20037;-79
2021/12/08 12:53:35;;;;;;;8.55;4.88;;;3.00;92.40;;;;;;4994540;28;20072;-80
2021/12/08 12:56:00;;;;;;;8.23;5.28;;;3.00;92.40;;;;;;5005011;28;20049;-79
2021/12/08 12:58:38;;;;;;;10.43;5.63;;;3.00;92.40;;;;;;5040714;28;20186;-79
2021/12/08 13:01:09;;;;;;;8.57;5.30;;;3.10;92.50;;;;;;5004772;28;20037;-79
2021/12/08 13:03:43;;;;;;;7.57;5.97;;;3.00;92.80;;;;;;5000208;28;20491;-79
2021/12/08 13:06:10;;;;;;;10.75;5.28;;;3.00;92.40;;;;;;5023751;28;20131;-79
2021/12/08 13:08:54;;;;;;;7.47;5.45;;;3.00;92.40;;;;;;5011417;28;20040;-79
2021/12/08 13:11:22;;;;;;;9.18;4.90;;;3.00;92.40;;;;;;4998212;28;20102;-79
2021/12/08 13:13:49;;;;;;;12.20;6.60;;;3.00;92.40;;;;;;5009352;28;22215;-79
2021/12/08 13:16:22;;;;;;;11.02;6.40;;;3.10;92.40;;;;;;5009971;28;20033;-80
2021/12/08 13:18:57;;;;;;;12.43;6.18;;;3.10;92.40;;;;;;5027251;28;20390;-79
2021/12/08 13:21:46;;;;;;;12.02;7.00;;;3.10;92.40;;;;;;4985072;28;20129;-79
2021/12/08 13:24:36;;;;;;;10.20;5.72;;;3.10;92.40;;;;;;5024216;28;20519;-80
2021/12/08 13:27:07;;;;;;;5.80;4.47;;;3.10;92.40;;;;;;5021730;28;20573;-79
2021/12/08 13:29:39;;;;;;;9.32;4.93;;;3.10;92.40;;;;;;5027529;28;20044;-79
2021/12/08 13:32:15;;;;;;;;;;;3.10;92.40;;;;;;5000274;28;20623;-79
2021/12/08 13:35:01;;;;;;;9.25;5.85;;;3.10;92.40;;;;;;5019723;28;19959;-79
2021/12/08 13:37:29;;;;;;;8.25;5.78;;;3.10;92.30;;;;;;5021074;28;20040;-79
2021/12/08 13:40:06;;;;;;;10.02;6.90;;;3.10;92.30;;;;;;5003703;28;20514;-80
2021/12/08 13:42:34;;;;;;;11.70;6.63;;;3.10;92.40;;;;;;5008047;28;20048;-79
2021/12/08 13:45:07;;;;;;;8.48;6.25;;;3.10;92.40;;;;;;5007740;28;20065;-79
2021/12/08 13:47:34;;;;;;;6.93;4.70;;;3.10;92.40;;;;;;5021027;28;20029;-79
2021/12/08 13:50:02;;;;;;;10.73;5.68;;;3.10;92.40;;;;;;5008113;28;20699;-79